Detall de PIREP

Printer-friendly versionPDF version

[2011/02/04 08:29:00]
Flight IATA:CT2111
Pilot Number:041
Company ICAO:CAT
Aircraft Type:F28/A
PAX:76
Departing Airport: LEST
Destination Airport: LEVC
Alternate Airport:LEAL
Online: VATSIM
Route:FORNO A33 ZMR A33 DISKO A33 INDEG A33 MAGIN A33 HORTA A33 CJN A33 PRADO A33 CENTA
Flight Level:F220
No Slew and time accel
No pause
Crash detect
Detect pilot in Cockpit between each 30 and 45 minutes
08:29 Zero fuel Weight: 57786 Lbs, Fuel Weight: 13653 Lbs
08:29 VATSIM:LEST 040800Z 12003KT 0250 R17/0250N R35/0200N FG VV001 03/03 Q1036 NOSIG
08:29 VATSIM:LEVC 040800Z 26003KT CAVOK 04/01 Q1032 NOSIG
08:29 VOICE CATALONIAN
08:31 Parking Brakes off
08:45 Take-off
08:45 Take off Weight: 70773 Lbs
08:45 Wind: 119º @ 005 Knots Heading: 165º
08:45 POS N42º 53´ 36´´ W008º 24´ 50´´
08:45 Gear Up: 171 Knots
08:45 Flaps:1 at 171 Knots
08:45 Flaps:0 at 203 Knots
08:56 TOC
08:56 Fuel Weight: 11455 Lb
09:00 Wind:113º@005 Knots Heading: 123º Ground Speed: 390 Knots Altitude 22664 ft
09:15 Wind:007º@000 Knots Heading: 115º Ground Speed: 403 Knots Altitude 22040 ft
09:22 TOD
09:22 Fuel Weight: 9274 Lb
09:22 TOC
09:22 Fuel Weight: 9213 Lb
09:30 Wind:035º@002 Knots Heading: 116º Ground Speed: 396 Knots Altitude 22634 ft
09:35 TOD
09:35 Fuel Weight: 8120 Lb
09:45 Wind:276º@003 Knots Heading: 119º Ground Speed: 275 Knots Altitude 8572 ft
09:56 Flaps:1 at 209 Knots
09:56 Flaps:2 at 198 Knots
10:00 Wind:276º@003 Knots Heading: 096º Ground Speed: 207 Knots Altitude 3497 ft
10:01 Flaps:3 at 200 Knots
10:06 Gear Down: 170 Knots
10:06 Flaps:4 at 158 Knots
10:07 Flaps:5 at 140 Knots
10:10 TouchDown:Rate -113 ft/min Speed: 114 Knots
10:10 VATSIM:LEVC 041000Z 27005KT CAVOK 13/02 Q1033 NOSIG
10:10 Land
10:10 Wind:269º@005 Knots
10:10 Heading: 290º
10:10 Flight Duration: 01:25
10:10 Landing Weight: 63828 Lbs
10:10 POS N39º 29´ 23´´ W000º 28´ 58´´
10:14 Parking brakes on
10:14 Block to Block Duration: 01:43
10:14 Final Fuel: 5879 Lbls
10:14 Spent Fuel: 7773 Lbls
10:14 Flight Length: 447 NM
10:14 TOD Land Length: 140 NM

Exportar CSV

Powered by Drupal - Modified by Danger4k